sensor_id;sensor_type;location;lat;lon;timestamp;temperature;humidity
2639;DHT22;1329;51.384;7.122;2023-05-17T00:00:27;11.70;47.80
2639;DHT22;1329;51.384;7.122;2023-05-17T00:02:53;11.60;48.80
2639;DHT22;1329;51.384;7.122;2023-05-17T00:05:20;11.60;49.40
2639;DHT22;1329;51.384;7.122;2023-05-17T00:07:47;11.60;50.00
2639;DHT22;1329;51.384;7.122;2023-05-17T00:10:14;11.50;49.80
2639;DHT22;1329;51.384;7.122;2023-05-17T00:12:43;11.50;49.00
2639;DHT22;1329;51.384;7.122;2023-05-17T00:15:10;11.40;45.80
2639;DHT22;1329;51.384;7.122;2023-05-17T00:17:39;11.40;50.50
2639;DHT22;1329;51.384;7.122;2023-05-17T00:20:06;11.40;52.40
2639;DHT22;1329;51.384;7.122;2023-05-17T00:22:34;11.30;52.60
2639;DHT22;1329;51.384;7.122;2023-05-17T00:25:01;11.30;54.80
2639;DHT22;1329;51.384;7.122;2023-05-17T00:27:28;11.30;54.60
2639;DHT22;1329;51.384;7.122;2023-05-17T00:29:56;11.20;56.50
2639;DHT22;1329;51.384;7.122;2023-05-17T00:32:23;11.20;54.90
2639;DHT22;1329;51.384;7.122;2023-05-17T00:34:50;11.20;58.00
2639;DHT22;1329;51.384;7.122;2023-05-17T00:37:17;11.20;58.30
2639;DHT22;1329;51.384;7.122;2023-05-17T00:39:44;11.20;58.30
2639;DHT22;1329;51.384;7.122;2023-05-17T00:42:11;11.20;59.50
2639;DHT22;1329;51.384;7.122;2023-05-17T00:44:38;11.10;59.70
2639;DHT22;1329;51.384;7.122;2023-05-17T00:47:07;11.10;60.30
2639;DHT22;1329;51.384;7.122;2023-05-17T00:49:34;11.10;59.40
2639;DHT22;1329;51.384;7.122;2023-05-17T00:52:01;11.10;63.30
2639;DHT22;1329;51.384;7.122;2023-05-17T00:54:28;11.10;64.10
2639;DHT22;1329;51.384;7.122;2023-05-17T00:56:56;11.10;64.50
2639;DHT22;1329;51.384;7.122;2023-05-17T00:59:25;11.10;64.30
2639;DHT22;1329;51.384;7.122;2023-05-17T01:01:53;11.00;63.60
2639;DHT22;1329;51.384;7.122;2023-05-17T01:04:22;11.10;64.80
2639;DHT22;1329;51.384;7.122;2023-05-17T01:06:50;11.00;62.20
2639;DHT22;1329;51.384;7.122;2023-05-17T01:09:17;11.00;64.10
2639;DHT22;1329;51.384;7.122;2023-05-17T01:11:52;11.00;64.00
2639;DHT22;1329;51.384;7.122;2023-05-17T01:14:31;11.00;56.20
2639;DHT22;1329;51.384;7.122;2023-05-17T01:17:07;10.90;56.40
2639;DHT22;1329;51.384;7.122;2023-05-17T01:19:54;10.90;60.00
2639;DHT22;1329;51.384;7.122;2023-05-17T01:22:35;10.90;48.80
2639;DHT22;1329;51.384;7.122;2023-05-17T01:25:33;10.80;55.00
2639;DHT22;1329;51.384;7.122;2023-05-17T01:28:07;10.80;50.50
2639;DHT22;1329;51.384;7.122;2023-05-17T01:30:36;10.80;62.20
2639;DHT22;1329;51.384;7.122;2023-05-17T01:33:04;10.70;66.30
2639;DHT22;1329;51.384;7.122;2023-05-17T01:35:32;10.70;65.00
2639;DHT22;1329;51.384;7.122;2023-05-17T01:37:59;10.70;66.40
2639;DHT22;1329;51.384;7.122;2023-05-17T01:40:26;10.70;67.20
2639;DHT22;1329;51.384;7.122;2023-05-17T01:42:56;10.70;67.80
2639;DHT22;1329;51.384;7.122;2023-05-17T01:45:34;10.60;64.60
2639;DHT22;1329;51.384;7.122;2023-05-17T01:48:14;10.60;60.00
2639;DHT22;1329;51.384;7.122;2023-05-17T01:50:47;10.60;59.70
2639;DHT22;1329;51.384;7.122;2023-05-17T01:53:20;10.60;65.60
2639;DHT22;1329;51.384;7.122;2023-05-17T01:55:50;10.50;62.60
2639;DHT22;1329;51.384;7.122;2023-05-17T01:58:21;10.50;64.90
2639;DHT22;1329;51.384;7.122;2023-05-17T02:00:55;10.50;65.10
2639;DHT22;1329;51.384;7.122;2023-05-17T02:03:22;10.50;59.40
2639;DHT22;1329;51.384;7.122;2023-05-17T02:05:49;10.40;65.00
2639;DHT22;1329;51.384;7.122;2023-05-17T02:08:16;10.40;66.70
2639;DHT22;1329;51.384;7.122;2023-05-17T02:10:43;10.40;66.60
2639;DHT22;1329;51.384;7.122;2023-05-17T02:13:10;10.30;67.40
2639;DHT22;1329;51.384;7.122;2023-05-17T02:15:37;10.30;67.50
2639;DHT22;1329;51.384;7.122;2023-05-17T02:18:05;10.30;67.40
2639;DHT22;1329;51.384;7.122;2023-05-17T02:20:32;10.30;65.50
2639;DHT22;1329;51.384;7.122;2023-05-17T02:22:59;10.30;67.90
2639;DHT22;1329;51.384;7.122;2023-05-17T02:25:26;10.20;67.80
2639;DHT22;1329;51.384;7.122;2023-05-17T02:27:53;10.20;68.30
2639;DHT22;1329;51.384;7.122;2023-05-17T02:30:19;10.20;67.90
2639;DHT22;1329;51.384;7.122;2023-05-17T02:32:47;10.20;66.50
2639;DHT22;1329;51.384;7.122;2023-05-17T02:35:15;10.10;66.60
2639;DHT22;1329;51.384;7.122;2023-05-17T02:37:42;10.10;66.20
2639;DHT22;1329;51.384;7.122;2023-05-17T02:40:10;10.10;69.60
2639;DHT22;1329;51.384;7.122;2023-05-17T02:42:37;10.10;69.40
2639;DHT22;1329;51.384;7.122;2023-05-17T02:45:04;10.10;69.50
2639;DHT22;1329;51.384;7.122;2023-05-17T02:47:32;10.00;69.30
2639;DHT22;1329;51.384;7.122;2023-05-17T02:49:59;10.00;70.40
2639;DHT22;1329;51.384;7.122;2023-05-17T02:52:27;10.00;69.20
2639;DHT22;1329;51.384;7.122;2023-05-17T02:54:54;10.00;67.30
2639;DHT22;1329;51.384;7.122;2023-05-17T02:57:21;10.00;71.80
2639;DHT22;1329;51.384;7.122;2023-05-17T02:59:47;9.90;72.50
2639;DHT22;1329;51.384;7.122;2023-05-17T03:02:14;9.90;73.50
2639;DHT22;1329;51.384;7.122;2023-05-17T03:04:41;9.90;75.00
2639;DHT22;1329;51.384;7.122;2023-05-17T03:07:08;9.90;75.30
2639;DHT22;1329;51.384;7.122;2023-05-17T03:09:37;9.90;76.50
2639;DHT22;1329;51.384;7.122;2023-05-17T03:12:05;9.90;76.50
2639;DHT22;1329;51.384;7.122;2023-05-17T03:14:32;9.90;79.00
2639;DHT22;1329;51.384;7.122;2023-05-17T03:16:59;9.90;80.80
2639;DHT22;1329;51.384;7.122;2023-05-17T03:19:26;9.90;81.30
2639;DHT22;1329;51.384;7.122;2023-05-17T03:21:53;9.90;82.60
2639;DHT22;1329;51.384;7.122;2023-05-17T03:24:20;9.90;85.80
2639;DHT22;1329;51.384;7.122;2023-05-17T03:26:48;9.90;87.80
2639;DHT22;1329;51.384;7.122;2023-05-17T03:29:15;9.90;86.00
2639;DHT22;1329;51.384;7.122;2023-05-17T03:31:41;10.00;87.60
2639;DHT22;1329;51.384;7.122;2023-05-17T03:34:08;10.00;90.00
2639;DHT22;1329;51.384;7.122;2023-05-17T03:36:36;10.00;90.40
2639;DHT22;1329;51.384;7.122;2023-05-17T03:39:04;10.00;90.80
2639;DHT22;1329;51.384;7.122;2023-05-17T03:41:31;10.00;91.00
2639;DHT22;1329;51.384;7.122;2023-05-17T03:44:00;10.00;91.60
2639;DHT22;1329;51.384;7.122;2023-05-17T03:46:27;10.00;90.70
2639;DHT22;1329;51.384;7.122;2023-05-17T03:48:53;10.10;91.50
2639;DHT22;1329;51.384;7.122;2023-05-17T03:51:20;10.10;92.60
2639;DHT22;1329;51.384;7.122;2023-05-17T03:53:49;10.10;93.70
2639;DHT22;1329;51.384;7.122;2023-05-17T03:56:16;10.10;94.70
2639;DHT22;1329;51.384;7.122;2023-05-17T03:58:43;10.20;94.90
2639;DHT22;1329;51.384;7.122;2023-05-17T04:01:11;10.30;94.80
2639;DHT22;1329;51.384;7.122;2023-05-17T04:03:38;10.30;93.70
2639;DHT22;1329;51.384;7.122;2023-05-17T04:06:06;10.30;94.00
2639;DHT22;1329;51.384;7.122;2023-05-17T04:08:33;10.30;94.20
2639;DHT22;1329;51.384;7.122;2023-05-17T04:11:00;10.30;94.70
2639;DHT22;1329;51.384;7.122;2023-05-17T04:13:34;10.40;94.60
2639;DHT22;1329;51.384;7.122;2023-05-17T04:16:01;10.40;94.80
2639;DHT22;1329;51.384;7.122;2023-05-17T04:18:31;10.40;95.20
2639;DHT22;1329;51.384;7.122;2023-05-17T04:20:59;10.40;96.00
2639;DHT22;1329;51.384;7.122;2023-05-17T04:23:26;10.50;97.30
2639;DHT22;1329;51.384;7.122;2023-05-17T04:25:53;10.50;98.30
2639;DHT22;1329;51.384;7.122;2023-05-17T04:28:21;10.60;99.50
2639;DHT22;1329;51.384;7.122;2023-05-17T04:30:48;10.60;99.90
2639;DHT22;1329;51.384;7.122;2023-05-17T04:33:14;10.70;99.90
2639;DHT22;1329;51.384;7.122;2023-05-17T04:35:44;10.80;99.90
2639;DHT22;1329;51.384;7.122;2023-05-17T04:38:12;10.90;99.90
2639;DHT22;1329;51.384;7.122;2023-05-17T04:40:39;10.90;99.90
2639;DHT22;1329;51.384;7.122;2023-05-17T04:43:06;11.00;99.90
2639;DHT22;1329;51.384;7.122;2023-05-17T04:45:33;11.00;99.90
2639;DHT22;1329;51.384;7.122;2023-05-17T04:48:02;11.10;99.90
2639;DHT22;1329;51.384;7.122;2023-05-17T04:50:29;11.10;99.90
2639;DHT22;1329;51.384;7.122;2023-05-17T04:52:57;11.10;99.90
2639;DHT22;1329;51.384;7.122;2023-05-17T04:55:24;11.20;99.90
2639;DHT22;1329;51.384;7.122;2023-05-17T04:57:51;11.20;99.90
2639;DHT22;1329;51.384;7.122;2023-05-17T05:00:18;11.20;99.90
2639;DHT22;1329;51.384;7.122;2023-05-17T05:02:48;11.20;99.90
2639;DHT22;1329;51.384;7.122;2023-05-17T05:05:15;11.30;99.90
2639;DHT22;1329;51.384;7.122;2023-05-17T05:07:42;11.30;99.90
2639;DHT22;1329;51.384;7.122;2023-05-17T05:10:10;11.40;99.90
2639;DHT22;1329;51.384;7.122;2023-05-17T05:12:37;11.40;99.90
2639;DHT22;1329;51.384;7.122;2023-05-17T05:15:05;11.40;99.90
2639;DHT22;1329;51.384;7.122;2023-05-17T05:17:33;11.40;99.90
2639;DHT22;1329;51.384;7.122;2023-05-17T05:19:59;11.40;99.90
2639;DHT22;1329;51.384;7.122;2023-05-17T05:22:26;11.50;99.90
2639;DHT22;1329;51.384;7.122;2023-05-17T05:24:54;11.40;99.90
2639;DHT22;1329;51.384;7.122;2023-05-17T05:27:23;11.50;99.90
2639;DHT22;1329;51.384;7.122;2023-05-17T05:29:50;11.50;99.90
2639;DHT22;1329;51.384;7.122;2023-05-17T05:32:17;11.50;99.90
2639;DHT22;1329;51.384;7.122;2023-05-17T05:34:43;11.60;99.90
2639;DHT22;1329;51.384;7.122;2023-05-17T05:37:10;11.60;99.90
2639;DHT22;1329;51.384;7.122;2023-05-17T05:39:37;11.60;99.90
2639;DHT22;1329;51.384;7.122;2023-05-17T05:42:04;11.60;99.90
2639;DHT22;1329;51.384;7.122;2023-05-17T05:44:33;11.70;99.90
2639;DHT22;1329;51.384;7.122;2023-05-17T05:47:00;11.70;99.90
2639;DHT22;1329;51.384;7.122;2023-05-17T05:49:26;11.70;99.90
2639;DHT22;1329;51.384;7.122;2023-05-17T05:51:53;11.80;99.90
2639;DHT22;1329;51.384;7.122;2023-05-17T05:54:20;11.80;99.90
2639;DHT22;1329;51.384;7.122;2023-05-17T05:56:47;11.80;99.90
2639;DHT22;1329;51.384;7.122;2023-05-17T05:59:15;11.80;99.90
2639;DHT22;1329;51.384;7.122;2023-05-17T06:01:44;11.80;99.90
2639;DHT22;1329;51.384;7.122;2023-05-17T06:04:10;11.80;96.30
2639;DHT22;1329;51.384;7.122;2023-05-17T06:06:37;11.80;96.60
2639;DHT22;1329;51.384;7.122;2023-05-17T06:09:04;11.90;96.80
2639;DHT22;1329;51.384;7.122;2023-05-17T06:11:36;11.90;96.10
2639;DHT22;1329;51.384;7.122;2023-05-17T06:14:03;11.90;95.40
2639;DHT22;1329;51.384;7.122;2023-05-17T06:16:30;11.90;94.40
2639;DHT22;1329;51.384;7.122;2023-05-17T06:18:58;11.90;94.40
2639;DHT22;1329;51.384;7.122;2023-05-17T06:21:25;11.90;93.00
2639;DHT22;1329;51.384;7.122;2023-05-17T06:23:52;11.90;94.70
2639;DHT22;1329;51.384;7.122;2023-05-17T06:26:19;12.00;93.60
2639;DHT22;1329;51.384;7.122;2023-05-17T06:28:46;12.10;92.90
2639;DHT22;1329;51.384;7.122;2023-05-17T06:31:13;12.10;91.90
2639;DHT22;1329;51.384;7.122;2023-05-17T06:33:39;12.10;91.50
2639;DHT22;1329;51.384;7.122;2023-05-17T06:36:08;12.20;91.80
2639;DHT22;1329;51.384;7.122;2023-05-17T06:38:35;12.30;86.70
2639;DHT22;1329;51.384;7.122;2023-05-17T06:41:02;12.30;89.40
2639;DHT22;1329;51.384;7.122;2023-05-17T06:43:29;12.40;89.30
2639;DHT22;1329;51.384;7.122;2023-05-17T06:45:56;12.50;87.10
2639;DHT22;1329;51.384;7.122;2023-05-17T06:48:23;12.50;84.70
2639;DHT22;1329;51.384;7.122;2023-05-17T06:50:50;12.50;80.30
2639;DHT22;1329;51.384;7.122;2023-05-17T06:53:19;12.60;76.70
2639;DHT22;1329;51.384;7.122;2023-05-17T06:55:46;12.60;60.40
2639;DHT22;1329;51.384;7.122;2023-05-17T06:58:13;12.60;69.50
2639;DHT22;1329;51.384;7.122;2023-05-17T07:00:40;12.60;66.10
2639;DHT22;1329;51.384;7.122;2023-05-17T07:03:07;12.60;70.60
2639;DHT22;1329;51.384;7.122;2023-05-17T07:05:34;12.70;70.80
2639;DHT22;1329;51.384;7.122;2023-05-17T07:08:01;12.70;74.80
2639;DHT22;1329;51.384;7.122;2023-05-17T07:10:29;12.80;77.00
2639;DHT22;1329;51.384;7.122;2023-05-17T07:12:56;12.90;73.40
2639;DHT22;1329;51.384;7.122;2023-05-17T07:15:23;13.00;78.30
2639;DHT22;1329;51.384;7.122;2023-05-17T07:17:50;13.10;71.20
2639;DHT22;1329;51.384;7.122;2023-05-17T07:20:17;13.10;73.70
2639;DHT22;1329;51.384;7.122;2023-05-17T07:22:45;13.30;71.80
2639;DHT22;1329;51.384;7.122;2023-05-17T07:25:12;13.30;65.10
2639;DHT22;1329;51.384;7.122;2023-05-17T07:27:43;13.30;57.80
2639;DHT22;1329;51.384;7.122;2023-05-17T07:30:11;13.30;45.50
2639;DHT22;1329;51.384;7.122;2023-05-17T07:32:38;13.30;48.70
2639;DHT22;1329;51.384;7.122;2023-05-17T07:35:06;13.30;54.40
2639;DHT22;1329;51.384;7.122;2023-05-17T07:37:33;13.20;54.00
2639;DHT22;1329;51.384;7.122;2023-05-17T07:40:00;13.20;52.20
2639;DHT22;1329;51.384;7.122;2023-05-17T07:42:29;13.20;40.40
2639;DHT22;1329;51.384;7.122;2023-05-17T07:44:58;13.20;41.00
2639;DHT22;1329;51.384;7.122;2023-05-17T07:47:24;13.10;26.90
2639;DHT22;1329;51.384;7.122;2023-05-17T07:49:51;13.10;36.20
2639;DHT22;1329;51.384;7.122;2023-05-17T07:52:18;13.10;42.70
2639;DHT22;1329;51.384;7.122;2023-05-17T07:54:46;13.10;39.00
2639;DHT22;1329;51.384;7.122;2023-05-17T07:57:13;13.10;43.20
2639;DHT22;1329;51.384;7.122;2023-05-17T07:59:40;13.10;43.60
2639;DHT22;1329;51.384;7.122;2023-05-17T08:02:08;13.10;44.70
2639;DHT22;1329;51.384;7.122;2023-05-17T08:04:35;13.20;41.70
2639;DHT22;1329;51.384;7.122;2023-05-17T08:07:03;13.30;28.00
2639;DHT22;1329;51.384;7.122;2023-05-17T08:09:30;13.40;24.10
2639;DHT22;1329;51.384;7.122;2023-05-17T08:11:57;13.40;22.40
2639;DHT22;1329;51.384;7.122;2023-05-17T08:14:24;13.50;23.50
2639;DHT22;1329;51.384;7.122;2023-05-17T08:16:51;13.60;11.80
2639;DHT22;1329;51.384;7.122;2023-05-17T08:19:19;13.60;23.90
2639;DHT22;1329;51.384;7.122;2023-05-17T08:21:47;13.70;21.40
2639;DHT22;1329;51.384;7.122;2023-05-17T08:24:14;13.80;28.30
2639;DHT22;1329;51.384;7.122;2023-05-17T08:26:42;13.90;25.00
2639;DHT22;1329;51.384;7.122;2023-05-17T08:29:08;14.00;25.70
2639;DHT22;1329;51.384;7.122;2023-05-17T08:31:35;14.00;25.80
2639;DHT22;1329;51.384;7.122;2023-05-17T08:34:02;14.00;19.00
2639;DHT22;1329;51.384;7.122;2023-05-17T08:36:31;14.10;18.80
2639;DHT22;1329;51.384;7.122;2023-05-17T08:38:58;14.10;12.10
2639;DHT22;1329;51.384;7.122;2023-05-17T08:41:25;14.10;18.90
2639;DHT22;1329;51.384;7.122;2023-05-17T08:43:53;14.10;10.30
2639;DHT22;1329;51.384;7.122;2023-05-17T08:46:22;14.10;8.20
2639;DHT22;1329;51.384;7.122;2023-05-17T08:48:49;14.00;3.80
2639;DHT22;1329;51.384;7.122;2023-05-17T08:51:24;14.00;10.10
2639;DHT22;1329;51.384;7.122;2023-05-17T08:53:54;14.10;15.00
2639;DHT22;1329;51.384;7.122;2023-05-17T08:56:22;14.20;19.00
2639;DHT22;1329;51.384;7.122;2023-05-17T08:58:53;14.40;18.30
2639;DHT22;1329;51.384;7.122;2023-05-17T09:01:22;14.50;23.50
2639;DHT22;1329;51.384;7.122;2023-05-17T09:03:49;14.70;20.20
2639;DHT22;1329;51.384;7.122;2023-05-17T09:06:20;14.80;21.90
2639;DHT22;1329;51.384;7.122;2023-05-17T09:08:49;14.90;4.30
2639;DHT22;1329;51.384;7.122;2023-05-17T09:11:24;15.10;13.50
2639;DHT22;1329;51.384;7.122;2023-05-17T09:13:52;15.30;1.00
2639;DHT22;1329;51.384;7.122;2023-05-17T09:16:20;15.50;20.80
2639;DHT22;1329;51.384;7.122;2023-05-17T09:18:57;15.60;18.70
2639;DHT22;1329;51.384;7.122;2023-05-17T09:21:26;15.70;1.00
2639;DHT22;1329;51.384;7.122;2023-05-17T09:23:54;15.70;1.00
2639;DHT22;1329;51.384;7.122;2023-05-17T09:26:25;15.70;1.00
2639;DHT22;1329;51.384;7.122;2023-05-17T09:29:07;15.70;1.00
2639;DHT22;1329;51.384;7.122;2023-05-17T09:31:36;15.70;1.00
2639;DHT22;1329;51.384;7.122;2023-05-17T09:34:03;15.80;18.70
2639;DHT22;1329;51.384;7.122;2023-05-17T09:36:31;15.90;11.50
2639;DHT22;1329;51.384;7.122;2023-05-17T09:39:01;16.00;2.60
2639;DHT22;1329;51.384;7.122;2023-05-17T09:41:32;16.10;1.00
2639;DHT22;1329;51.384;7.122;2023-05-17T09:44:00;16.10;1.00
2639;DHT22;1329;51.384;7.122;2023-05-17T09:46:32;16.00;1.00
2639;DHT22;1329;51.384;7.122;2023-05-17T09:49:00;15.90;1.00
2639;DHT22;1329;51.384;7.122;2023-05-17T09:51:32;15.80;1.00
2639;DHT22;1329;51.384;7.122;2023-05-17T09:53:59;15.70;1.00
2639;DHT22;1329;51.384;7.122;2023-05-17T09:56:27;15.60;1.00
2639;DHT22;1329;51.384;7.122;2023-05-17T09:58:56;15.60;1.00
2639;DHT22;1329;51.384;7.122;2023-05-17T10:01:25;15.70;1.00
2639;DHT22;1329;51.384;7.122;2023-05-17T10:03:53;15.70;1.00
2639;DHT22;1329;51.384;7.122;2023-05-17T10:06:21;15.60;1.00
2639;DHT22;1329;51.384;7.122;2023-05-17T10:08:51;15.60;1.00
2639;DHT22;1329;51.384;7.122;2023-05-17T10:11:23;15.60;1.00
2639;DHT22;1329;51.384;7.122;2023-05-17T10:14:00;15.50;1.00
2639;DHT22;1329;51.384;7.122;2023-05-17T10:16:30;15.50;1.00
2639;DHT22;1329;51.384;7.122;2023-05-17T10:18:59;15.50;1.00
2639;DHT22;1329;51.384;7.122;2023-05-17T10:21:27;15.50;1.00
2639;DHT22;1329;51.384;7.122;2023-05-17T10:23:54;15.50;1.00
2639;DHT22;1329;51.384;7.122;2023-05-17T10:26:21;15.60;1.00
2639;DHT22;1329;51.384;7.122;2023-05-17T10:28:49;15.70;1.00
2639;DHT22;1329;51.384;7.122;2023-05-17T10:31:20;15.60;1.00
2639;DHT22;1329;51.384;7.122;2023-05-17T10:33:49;15.60;1.00
2639;DHT22;1329;51.384;7.122;2023-05-17T10:36:17;15.60;1.00
2639;DHT22;1329;51.384;7.122;2023-05-17T10:38:45;15.60;1.00
2639;DHT22;1329;51.384;7.122;2023-05-17T10:41:12;15.70;1.00
2639;DHT22;1329;51.384;7.122;2023-05-17T10:43:41;15.70;1.00
2639;DHT22;1329;51.384;7.122;2023-05-17T10:46:11;15.80;1.00
2639;DHT22;1329;51.384;7.122;2023-05-17T10:48:42;15.80;1.00
2639;DHT22;1329;51.384;7.122;2023-05-17T10:51:10;15.90;1.00
2639;DHT22;1329;51.384;7.122;2023-05-17T10:54:07;15.90;1.00
2639;DHT22;1329;51.384;7.122;2023-05-17T10:56:39;16.00;1.00
2639;DHT22;1329;51.384;7.122;2023-05-17T10:59:17;16.00;1.00
2639;DHT22;1329;51.384;7.122;2023-05-17T11:01:51;16.00;1.00
2639;DHT22;1329;51.384;7.122;2023-05-17T11:04:22;16.00;1.00
2639;DHT22;1329;51.384;7.122;2023-05-17T11:06:51;15.90;1.00
2639;DHT22;1329;51.384;7.122;2023-05-17T11:09:22;15.90;1.00
2639;DHT22;1329;51.384;7.122;2023-05-17T11:12:06;16.00;1.00
2639;DHT22;1329;51.384;7.122;2023-05-17T11:14:50;16.00;1.00
2639;DHT22;1329;51.384;7.122;2023-05-17T11:17:19;16.10;1.00
2639;DHT22;1329;51.384;7.122;2023-05-17T11:20:06;16.20;1.00
2639;DHT22;1329;51.384;7.122;2023-05-17T11:22:37;16.30;1.00
2639;DHT22;1329;51.384;7.122;2023-05-17T11:25:08;16.30;1.00
2639;DHT22;1329;51.384;7.122;2023-05-17T11:27:40;16.50;1.00
2639;DHT22;1329;51.384;7.122;2023-05-17T11:30:22;16.60;1.00
2639;DHT22;1329;51.384;7.122;2023-05-17T11:32:53;16.60;1.00
2639;DHT22;1329;51.384;7.122;2023-05-17T11:35:26;16.70;1.00
2639;DHT22;1329;51.384;7.122;2023-05-17T11:38:13;16.70;1.00
2639;DHT22;1329;51.384;7.122;2023-05-17T11:40:42;16.70;1.00
2639;DHT22;1329;51.384;7.122;2023-05-17T11:43:14;16.80;1.00
2639;DHT22;1329;51.384;7.122;2023-05-17T11:45:44;16.70;1.00
2639;DHT22;1329;51.384;7.122;2023-05-17T11:48:14;16.80;1.00
2639;DHT22;1329;51.384;7.122;2023-05-17T11:50:44;16.70;1.00
2639;DHT22;1329;51.384;7.122;2023-05-17T11:53:11;16.70;1.00
2639;DHT22;1329;51.384;7.122;2023-05-17T11:55:41;16.70;1.00
2639;DHT22;1329;51.384;7.122;2023-05-17T11:58:10;16.70;1.00
2639;DHT22;1329;51.384;7.122;2023-05-17T12:00:38;16.70;1.00
2639;DHT22;1329;51.384;7.122;2023-05-17T12:03:19;16.60;1.00
2639;DHT22;1329;51.384;7.122;2023-05-17T12:05:49;16.60;1.00
2639;DHT22;1329;51.384;7.122;2023-05-17T12:08:18;16.60;1.00
2639;DHT22;1329;51.384;7.122;2023-05-17T12:10:47;16.60;1.00
2639;DHT22;1329;51.384;7.122;2023-05-17T12:13:16;16.70;1.00
2639;DHT22;1329;51.384;7.122;2023-05-17T12:15:46;16.90;1.00
2639;DHT22;1329;51.384;7.122;2023-05-17T12:18:17;16.90;1.00
2639;DHT22;1329;51.384;7.122;2023-05-17T12:20:58;17.10;1.00
2639;DHT22;1329;51.384;7.122;2023-05-17T12:23:27;17.20;1.00
2639;DHT22;1329;51.384;7.122;2023-05-17T12:26:06;17.40;1.00
2639;DHT22;1329;51.384;7.122;2023-05-17T12:28:34;17.50;1.00
2639;DHT22;1329;51.384;7.122;2023-05-17T12:31:03;17.50;1.00
2639;DHT22;1329;51.384;7.122;2023-05-17T12:33:35;17.60;1.00
2639;DHT22;1329;51.384;7.122;2023-05-17T12:36:05;17.60;1.00
2639;DHT22;1329;51.384;7.122;2023-05-17T12:38:34;17.70;1.00
2639;DHT22;1329;51.384;7.122;2023-05-17T12:41:02;17.60;1.00
2639;DHT22;1329;51.384;7.122;2023-05-17T12:43:32;17.60;1.00
2639;DHT22;1329;51.384;7.122;2023-05-17T12:46:05;17.60;1.00
2639;DHT22;1329;51.384;7.122;2023-05-17T12:48:34;17.60;1.00
2639;DHT22;1329;51.384;7.122;2023-05-17T12:51:12;17.60;1.00
2639;DHT22;1329;51.384;7.122;2023-05-17T12:53:42;17.70;1.00
2639;DHT22;1329;51.384;7.122;2023-05-17T12:56:15;17.80;1.00
2639;DHT22;1329;51.384;7.122;2023-05-17T12:58:43;17.90;1.00
2639;DHT22;1329;51.384;7.122;2023-05-17T13:01:10;18.00;1.00
2639;DHT22;1329;51.384;7.122;2023-05-17T13:03:39;18.00;1.00
2639;DHT22;1329;51.384;7.122;2023-05-17T13:06:07;18.10;1.00
2639;DHT22;1329;51.384;7.122;2023-05-17T13:08:37;18.00;1.00
2639;DHT22;1329;51.384;7.122;2023-05-17T13:11:12;18.10;1.00
2639;DHT22;1329;51.384;7.122;2023-05-17T13:13:40;18.20;1.00
2639;DHT22;1329;51.384;7.122;2023-05-17T13:16:07;18.20;1.00
2639;DHT22;1329;51.384;7.122;2023-05-17T13:18:47;18.40;1.00
2639;DHT22;1329;51.384;7.122;2023-05-17T13:21:17;18.50;1.00
2639;DHT22;1329;51.384;7.122;2023-05-17T13:23:47;18.60;1.00
2639;DHT22;1329;51.384;7.122;2023-05-17T13:26:16;18.70;1.00
2639;DHT22;1329;51.384;7.122;2023-05-17T13:28:43;18.70;1.00
2639;DHT22;1329;51.384;7.122;2023-05-17T13:31:10;18.80;1.00
2639;DHT22;1329;51.384;7.122;2023-05-17T13:33:37;18.90;1.00
2639;DHT22;1329;51.384;7.122;2023-05-17T13:36:04;18.90;1.00
2639;DHT22;1329;51.384;7.122;2023-05-17T13:38:32;19.00;1.00
2639;DHT22;1329;51.384;7.122;2023-05-17T13:41:00;19.10;1.00
2639;DHT22;1329;51.384;7.122;2023-05-17T13:43:27;19.20;1.00
2639;DHT22;1329;51.384;7.122;2023-05-17T13:45:54;19.20;1.00
2639;DHT22;1329;51.384;7.122;2023-05-17T13:48:23;19.30;1.00
2639;DHT22;1329;51.384;7.122;2023-05-17T13:50:50;19.30;1.00
2639;DHT22;1329;51.384;7.122;2023-05-17T13:53:17;19.30;1.00
2639;DHT22;1329;51.384;7.122;2023-05-17T13:55:45;19.30;1.00
2639;DHT22;1329;51.384;7.122;2023-05-17T13:58:13;19.30;1.00
2639;DHT22;1329;51.384;7.122;2023-05-17T14:00:42;19.30;1.00
2639;DHT22;1329;51.384;7.122;2023-05-17T14:03:10;19.30;1.00
2639;DHT22;1329;51.384;7.122;2023-05-17T14:05:38;19.50;1.00
2639;DHT22;1329;51.384;7.122;2023-05-17T14:08:05;19.60;1.00
2639;DHT22;1329;51.384;7.122;2023-05-17T14:10:33;19.70;1.00
2639;DHT22;1329;51.384;7.122;2023-05-17T14:13:00;19.80;1.00
2639;DHT22;1329;51.384;7.122;2023-05-17T14:15:28;19.80;1.00
2639;DHT22;1329;51.384;7.122;2023-05-17T14:17:57;19.80;1.00
2639;DHT22;1329;51.384;7.122;2023-05-17T14:20:23;19.70;1.00
2639;DHT22;1329;51.384;7.122;2023-05-17T14:22:50;19.70;1.00
2639;DHT22;1329;51.384;7.122;2023-05-17T14:25:17;19.60;1.00
2639;DHT22;1329;51.384;7.122;2023-05-17T14:27:45;19.50;1.00
2639;DHT22;1329;51.384;7.122;2023-05-17T14:30:13;19.40;1.00
2639;DHT22;1329;51.384;7.122;2023-05-17T14:32:42;19.30;1.00
2639;DHT22;1329;51.384;7.122;2023-05-17T14:35:09;19.30;1.00
2639;DHT22;1329;51.384;7.122;2023-05-17T14:37:35;19.30;1.00
2639;DHT22;1329;51.384;7.122;2023-05-17T14:40:03;19.30;1.00
2639;DHT22;1329;51.384;7.122;2023-05-17T14:42:30;19.40;1.00
2639;DHT22;1329;51.384;7.122;2023-05-17T14:44:57;19.50;1.00
2639;DHT22;1329;51.384;7.122;2023-05-17T14:47:24;19.50;1.00
2639;DHT22;1329;51.384;7.122;2023-05-17T14:49:53;19.60;1.00
2639;DHT22;1329;51.384;7.122;2023-05-17T14:52:20;19.70;1.00
2639;DHT22;1329;51.384;7.122;2023-05-17T14:54:46;19.70;1.00
2639;DHT22;1329;51.384;7.122;2023-05-17T14:57:13;19.70;1.00
2639;DHT22;1329;51.384;7.122;2023-05-17T14:59:40;19.70;1.00
2639;DHT22;1329;51.384;7.122;2023-05-17T15:02:08;19.60;1.00
2639;DHT22;1329;51.384;7.122;2023-05-17T15:04:36;19.60;1.00
2639;DHT22;1329;51.384;7.122;2023-05-17T15:07:04;19.60;1.00
2639;DHT22;1329;51.384;7.122;2023-05-17T15:09:31;19.60;1.00
2639;DHT22;1329;51.384;7.122;2023-05-17T15:11:58;19.70;1.00
2639;DHT22;1329;51.384;7.122;2023-05-17T15:14:25;19.80;1.00
2639;DHT22;1329;51.384;7.122;2023-05-17T15:16:52;19.90;1.00
2639;DHT22;1329;51.384;7.122;2023-05-17T15:19:19;19.90;1.00
2639;DHT22;1329;51.384;7.122;2023-05-17T15:21:46;19.90;1.00
2639;DHT22;1329;51.384;7.122;2023-05-17T15:24:14;19.90;1.00
2639;DHT22;1329;51.384;7.122;2023-05-17T15:26:41;19.90;1.00
2639;DHT22;1329;51.384;7.122;2023-05-17T15:29:09;20.00;1.00
2639;DHT22;1329;51.384;7.122;2023-05-17T15:31:36;20.10;1.00
2639;DHT22;1329;51.384;7.122;2023-05-17T15:34:03;20.10;1.00
2639;DHT22;1329;51.384;7.122;2023-05-17T15:36:30;20.20;1.00
2639;DHT22;1329;51.384;7.122;2023-05-17T15:38:57;20.20;1.00
2639;DHT22;1329;51.384;7.122;2023-05-17T15:41:25;20.20;1.00
2639;DHT22;1329;51.384;7.122;2023-05-17T15:43:52;20.20;1.00
2639;DHT22;1329;51.384;7.122;2023-05-17T15:46:19;20.00;1.00
2639;DHT22;1329;51.384;7.122;2023-05-17T15:48:46;20.10;1.00
2639;DHT22;1329;51.384;7.122;2023-05-17T15:51:13;20.10;1.00
2639;DHT22;1329;51.384;7.122;2023-05-17T15:53:40;20.00;1.00
2639;DHT22;1329;51.384;7.122;2023-05-17T15:56:07;19.90;1.00
2639;DHT22;1329;51.384;7.122;2023-05-17T15:58:37;19.70;1.00
2639;DHT22;1329;51.384;7.122;2023-05-17T16:01:04;19.60;1.00
2639;DHT22;1329;51.384;7.122;2023-05-17T16:03:31;19.50;1.00
2639;DHT22;1329;51.384;7.122;2023-05-17T16:05:58;19.40;1.00
2639;DHT22;1329;51.384;7.122;2023-05-17T16:08:25;19.40;1.00
2639;DHT22;1329;51.384;7.122;2023-05-17T16:10:52;19.50;1.00
2639;DHT22;1329;51.384;7.122;2023-05-17T16:13:19;19.50;1.00
2639;DHT22;1329;51.384;7.122;2023-05-17T16:15:47;19.60;1.00
2639;DHT22;1329;51.384;7.122;2023-05-17T16:18:14;19.60;1.00